Time,TemperatureF,DewpointF,PressureIn,WindDirection,WindDirectionDegrees,WindSpeedMPH,WindSpeedGustMPH,Humidity,HourlyPrecipIn,Conditions,Clouds,dailyrainin,SoftwareType,DateUTC
2013-04-05 09:54:00,48.0,35.0,30.16,SW,215,0.0,-999.0,61,-99.99,,,-99.99,,2013-04-05 14:54:00,
2013-04-05 10:02:00,48.0,35.0,30.16,SW,215,0.0,-999.0,61,-99.99,,,-99.99,,2013-04-05 15:02:00,
2013-04-05 10:12:00,48.0,35.0,30.16,SW,215,0.0,-999.0,61,-99.99,,,-99.99,,2013-04-05 15:12:00,
2013-04-05 10:23:00,53.0,36.0,30.18,SSE,167,0.0,-999.0,52,-99.99,,,-99.99,,2013-04-05 15:23:00,
2013-04-05 10:33:00,53.0,36.0,30.18,SSE,167,0.0,-999.0,52,-99.99,,,-99.99,,2013-04-05 15:33:00,
2013-04-05 10:43:00,53.0,36.0,30.18,SSE,167,0.0,-999.0,52,-99.99,,,-99.99,,2013-04-05 15:43:00,
2013-04-05 11:02:00,58.0,38.0,30.19,SSE,167,0.0,-999.0,47,-99.99,,,-99.99,,2013-04-05 16:02:00,
2013-04-05 11:13:00,58.0,38.0,30.19,SSE,167,0.0,-999.0,47,-99.99,,,-99.99,,2013-04-05 16:13:00,
2013-04-05 11:23:00,60.0,37.0,30.19,SSE,155,1.0,-999.0,42,-99.99,,,-99.99,,2013-04-05 16:23:00,
2013-04-05 11:30:00,62.0,37.0,30.19,SSE,157,1.0,-999.0,39,-99.99,,,-99.99,,2013-04-05 16:30:00,
2013-04-05 11:33:00,60.0,37.0,30.19,SSE,155,1.0,-999.0,42,-99.99,,,-99.99,,2013-04-05 16:33:00,
2013-04-05 11:43:00,60.0,37.0,30.19,SSE,155,1.0,-999.0,42,-99.99,,,-99.99,,2013-04-05 16:43:00,
2013-04-05 11:53:00,62.0,37.0,30.19,SSE,157,1.0,-999.0,39,-99.99,,,-99.99,,2013-04-05 16:53:00,
2013-04-05 12:03:00,62.0,37.0,30.19,SSE,157,1.0,-999.0,39,-99.99,,,-99.99,,2013-04-05 17:03:00,
2013-04-05 12:13:00,62.0,37.0,30.19,SSE,157,1.0,-999.0,39,-99.99,,,-99.99,,2013-04-05 17:13:00,
2013-04-05 12:23:00,62.0,37.0,30.19,SSE,157,1.0,-999.0,39,-99.99,,,-99.99,,2013-04-05 17:23:00,
2013-04-05 12:53:00,64.0,34.0,30.17,SSW,206,1.0,-999.0,33,-99.99,,,-99.99,,2013-04-05 17:53:00,
2013-04-05 13:02:00,64.0,34.0,30.17,SSW,206,1.0,-999.0,33,-99.99,,,-99.99,,2013-04-05 18:02:00,
2013-04-05 13:12:00,64.0,34.0,30.17,SSW,206,1.0,-999.0,33,-99.99,,,-99.99,,2013-04-05 18:12:00,
2013-04-05 13:22:00,64.0,34.0,30.16,South,169,7.0,-999.0,32,-99.99,,,-99.99,,2013-04-05 18:22:00,
2013-04-05 13:32:00,64.0,34.0,30.16,South,169,7.0,-999.0,32,-99.99,,,-99.99,,2013-04-05 18:32:00,
2013-04-05 13:43:00,64.0,34.0,30.16,South,169,7.0,-999.0,32,-99.99,,,-99.99,,2013-04-05 18:43:00,
2013-04-05 13:53:00,64.0,34.0,30.14,SE,146,5.0,-999.0,32,-99.99,,,-99.99,,2013-04-05 18:53:00,
2013-04-05 14:00:00,66.0,36.0,30.14,SSW,202,3.0,-999.0,33,-99.99,,,-99.99,,2013-04-05 19:00:00,
2013-04-05 14:02:00,64.0,34.0,30.14,SE,146,5.0,-999.0,32,-99.99,,,-99.99,,2013-04-05 19:02:00,
2013-04-05 14:13:00,64.0,34.0,30.14,SE,146,5.0,-999.0,32,-99.99,,,-99.99,,2013-04-05 19:13:00,
2013-04-05 14:22:00,66.0,36.0,30.14,SSW,202,3.0,-999.0,33,-99.99,,,-99.99,,2013-04-05 19:22:00,
2013-04-05 14:30:00,67.0,35.0,30.12,NNW,342,3.0,-999.0,31,-99.99,,,-99.99,,2013-04-05 19:30:00,
2013-04-05 14:33:00,66.0,36.0,30.14,SSW,202,3.0,-999.0,33,-99.99,,,-99.99,,2013-04-05 19:33:00,
2013-04-05 14:42:00,66.0,36.0,30.14,SSW,202,3.0,-999.0,33,-99.99,,,-99.99,,2013-04-05 19:42:00,
2013-04-05 14:52:00,66.0,36.0,30.14,SSW,202,3.0,-999.0,33,-99.99,,,-99.99,,2013-04-05 19:52:00,
2013-04-05 15:22:00,67.0,35.0,30.12,NNW,342,3.0,-999.0,31,-99.99,,,-99.99,,2013-04-05 20:22:00,
2013-04-05 15:53:00,68.0,37.0,30.09,SSW,202,2.0,-999.0,32,-99.99,,,-99.99,,2013-04-05 20:53:00,
2013-04-05 16:00:00,68.0,39.0,30.08,West,280,2.0,-999.0,34,-99.99,,,-99.99,,2013-04-05 21:00:00,
2013-04-05 16:02:00,68.0,37.0,30.09,SSW,202,2.0,-999.0,32,-99.99,,,-99.99,,2013-04-05 21:02:00,
2013-04-05 16:12:00,68.0,37.0,30.09,SSW,202,2.0,-999.0,32,-99.99,,,-99.99,,2013-04-05 21:12:00,
2013-04-05 16:23:00,68.0,39.0,30.08,West,280,2.0,-999.0,34,-99.99,,,-99.99,,2013-04-05 21:23:00,
2013-04-05 16:33:00,68.0,39.0,30.08,West,280,2.0,-999.0,34,-99.99,,,-99.99,,2013-04-05 21:33:00,
2013-04-05 16:44:00,68.0,39.0,30.08,West,280,2.0,-999.0,34,-99.99,,,-99.99,,2013-04-05 21:44:00,
2013-04-05 16:54:00,68.0,39.0,30.08,West,280,2.0,-999.0,34,-99.99,,,-99.99,,2013-04-05 21:54:00,
2013-04-05 17:23:00,68.0,39.0,30.04,SSE,165,4.0,-999.0,35,-99.99,,,-99.99,,2013-04-05 22:23:00,
2013-04-05 17:33:00,68.0,39.0,30.04,SSE,165,4.0,-999.0,35,-99.99,,,-99.99,,2013-04-05 22:33:00,
2013-04-05 17:44:00,68.0,39.0,30.04,SSE,165,4.0,-999.0,35,-99.99,,,-99.99,,2013-04-05 22:44:00,
2013-04-05 17:53:00,69.0,35.0,30.04,SSW,196,4.0,-999.0,29,-99.99,,,-99.99,,2013-04-05 22:53:00,
2013-04-05 18:02:00,69.0,35.0,30.04,SSW,196,4.0,-999.0,29,-99.99,,,-99.99,,2013-04-05 23:02:00,
2013-04-05 18:12:00,69.0,35.0,30.04,SSW,196,4.0,-999.0,29,-99.99,,,-99.99,,2013-04-05 23:12:00,
2013-04-05 18:22:00,68.0,36.0,30.03,South,181,4.0,-999.0,31,-99.99,,,-99.99,,2013-04-05 23:22:00,
2013-04-05 18:32:00,68.0,36.0,30.03,South,181,4.0,-999.0,31,-99.99,,,-99.99,,2013-04-05 23:32:00,
2013-04-05 18:42:00,68.0,36.0,30.03,South,181,4.0,-999.0,31,-99.99,,,-99.99,,2013-04-05 23:42:00,
2013-04-05 18:53:00,68.0,37.0,30.03,South,175,2.0,-999.0,32,-99.99,,,-99.99,,2013-04-05 23:53:00,
2013-04-05 19:02:00,68.0,37.0,30.03,South,175,2.0,-999.0,32,-99.99,,,-99.99,,2013-04-06 00:02:00,
2013-04-05 19:13:00,68.0,37.0,30.03,South,175,2.0,-999.0,32,-99.99,,,-99.99,,2013-04-06 00:13:00,
2013-04-05 19:22:00,66.0,38.0,30.03,South,182,1.0,-999.0,35,-99.99,,,-99.99,,2013-04-06 00:22:00,
2013-04-05 19:32:00,66.0,38.0,30.03,South,182,1.0,-999.0,35,-99.99,,,-99.99,,2013-04-06 00:32:00,
2013-04-05 19:43:00,66.0,38.0,30.03,South,182,1.0,-999.0,35,-99.99,,,-99.99,,2013-04-06 00:43:00,
2013-04-05 19:52:00,65.0,37.0,30.03,South,182,0.0,-999.0,36,-99.99,,,-99.99,,2013-04-06 00:52:00,
2013-04-05 20:02:00,65.0,37.0,30.03,South,182,0.0,-999.0,36,-99.99,,,-99.99,,2013-04-06 01:02:00,
2013-04-05 20:13:00,63.0,37.0,30.01,South,182,0.0,-999.0,38,-99.99,,,-99.99,,2013-04-06 01:13:00,
2013-04-05 20:22:00,63.0,37.0,30.01,South,182,0.0,-999.0,38,-99.99,,,-99.99,,2013-04-06 01:22:00,
2013-04-05 20:32:00,63.0,37.0,30.01,South,182,0.0,-999.0,38,-99.99,,,-99.99,,2013-04-06 01:32:00,
2013-04-05 20:43:00,63.0,37.0,30.01,South,182,0.0,-999.0,38,-99.99,,,-99.99,,2013-04-06 01:43:00,
2013-04-05 20:53:00,61.0,38.0,30.00,South,182,0.0,-999.0,42,-99.99,,,-99.99,,2013-04-06 01:53:00,
2013-04-05 21:02:00,61.0,38.0,30.00,South,182,0.0,-999.0,42,-99.99,,,-99.99,,2013-04-06 02:02:00,
2013-04-05 21:12:00,61.0,38.0,30.00,South,182,0.0,-999.0,42,-99.99,,,-99.99,,2013-04-06 02:12:00,
2013-04-05 21:22:00,59.0,38.0,30.00,South,182,0.0,-999.0,46,-99.99,,,-99.99,,2013-04-06 02:22:00,
2013-04-05 21:30:00,58.0,37.0,30.02,South,182,0.0,-999.0,46,-99.99,,,-99.99,,2013-04-06 02:30:00,
2013-04-05 21:32:00,59.0,38.0,30.00,South,182,0.0,-999.0,46,-99.99,,,-99.99,,2013-04-06 02:32:00,
2013-04-05 21:43:00,59.0,38.0,30.00,South,182,0.0,-999.0,46,-99.99,,,-99.99,,2013-04-06 02:43:00,
2013-04-05 21:52:00,58.0,37.0,30.02,South,182,0.0,-999.0,46,-99.99,,,-99.99,,2013-04-06 02:52:00,
2013-04-05 22:02:00,58.0,37.0,30.02,South,182,0.0,-999.0,46,-99.99,,,-99.99,,2013-04-06 03:02:00,
2013-04-05 22:12:00,58.0,37.0,30.02,South,182,0.0,-999.0,46,-99.99,,,-99.99,,2013-04-06 03:12:00,
2013-04-05 22:22:00,58.0,37.0,30.02,South,182,0.0,-999.0,46,-99.99,,,-99.99,,2013-04-06 03:22:00,